sensor_id;sensor_type;location;lat;lon;timestamp;pressure;altitude;pressure_sealevel;temperature;humidity
27294;BME280;14785;52.556;13.430;2022-08-25T00:01:09;101304.56;;;23.87;100.00
27294;BME280;14785;52.556;13.430;2022-08-25T00:03:35;101297.91;;;23.83;100.00
27294;BME280;14785;52.556;13.430;2022-08-25T00:06:00;101292.69;;;23.81;100.00
27294;BME280;14785;52.556;13.430;2022-08-25T00:08:25;101302.44;;;23.71;100.00
27294;BME280;14785;52.556;13.430;2022-08-25T00:10:51;101301.97;;;23.74;100.00
27294;BME280;14785;52.556;13.430;2022-08-25T00:13:16;101299.13;;;23.69;100.00
27294;BME280;14785;52.556;13.430;2022-08-25T00:15:43;101294.50;;;23.69;100.00
27294;BME280;14785;52.556;13.430;2022-08-25T00:18:09;101302.06;;;23.67;100.00
27294;BME280;14785;52.556;13.430;2022-08-25T00:20:34;101301.25;;;23.67;100.00
27294;BME280;14785;52.556;13.430;2022-08-25T00:23:00;101302.53;;;23.64;100.00
27294;BME280;14785;52.556;13.430;2022-08-25T00:25:25;101306.38;;;23.57;100.00
27294;BME280;14785;52.556;13.430;2022-08-25T00:27:51;101294.44;;;23.58;100.00
27294;BME280;14785;52.556;13.430;2022-08-25T00:30:17;101297.31;;;23.45;100.00
27294;BME280;14785;52.556;13.430;2022-08-25T00:32:43;101288.53;;;23.43;100.00
27294;BME280;14785;52.556;13.430;2022-08-25T00:35:09;101289.78;;;23.47;100.00
27294;BME280;14785;52.556;13.430;2022-08-25T00:37:34;101284.34;;;23.47;100.00
27294;BME280;14785;52.556;13.430;2022-08-25T00:40:04;101282.22;;;23.49;100.00
27294;BME280;14785;52.556;13.430;2022-08-25T00:42:29;101281.75;;;23.52;100.00
27294;BME280;14785;52.556;13.430;2022-08-25T00:44:55;101283.56;;;23.40;100.00
27294;BME280;14785;52.556;13.430;2022-08-25T00:47:22;101276.03;;;23.42;100.00
27294;BME280;14785;52.556;13.430;2022-08-25T00:49:55;101289.44;;;23.37;100.00
27294;BME280;14785;52.556;13.430;2022-08-25T00:52:29;101280.41;;;23.43;100.00
27294;BME280;14785;52.556;13.430;2022-08-25T00:55:06;101285.06;;;23.36;100.00
27294;BME280;14785;52.556;13.430;2022-08-25T00:57:36;101271.06;;;23.39;100.00
27294;BME280;14785;52.556;13.430;2022-08-25T01:00:08;101290.69;;;23.41;100.00
27294;BME280;14785;52.556;13.430;2022-08-25T01:02:35;101288.63;;;23.36;100.00
27294;BME280;14785;52.556;13.430;2022-08-25T01:05:01;101291.56;;;23.35;100.00
27294;BME280;14785;52.556;13.430;2022-08-25T01:07:27;101296.59;;;23.31;100.00
27294;BME280;14785;52.556;13.430;2022-08-25T01:09:52;101295.94;;;23.36;100.00
27294;BME280;14785;52.556;13.430;2022-08-25T01:12:18;101299.78;;;23.22;100.00
27294;BME280;14785;52.556;13.430;2022-08-25T01:14:44;101294.59;;;23.20;100.00
27294;BME280;14785;52.556;13.430;2022-08-25T01:17:11;101302.81;;;23.14;100.00
27294;BME280;14785;52.556;13.430;2022-08-25T01:19:36;101291.28;;;23.18;100.00
27294;BME280;14785;52.556;13.430;2022-08-25T01:22:02;101298.06;;;23.09;100.00
27294;BME280;14785;52.556;13.430;2022-08-25T01:25:04;101292.22;;;23.06;100.00
27294;BME280;14785;52.556;13.430;2022-08-25T01:27:28;101294.44;;;22.91;100.00
27294;BME280;14785;52.556;13.430;2022-08-25T01:29:54;101284.78;;;22.95;100.00
27294;BME280;14785;52.556;13.430;2022-08-25T01:32:20;101289.41;;;22.94;100.00
27294;BME280;14785;52.556;13.430;2022-08-25T01:34:45;101291.91;;;22.96;100.00
27294;BME280;14785;52.556;13.430;2022-08-25T01:37:12;101294.09;;;23.05;100.00
27294;BME280;14785;52.556;13.430;2022-08-25T01:39:39;101286.47;;;22.96;100.00
27294;BME280;14785;52.556;13.430;2022-08-25T01:44:32;101296.66;;;23.00;100.00
27294;BME280;14785;52.556;13.430;2022-08-25T01:47:00;101290.56;;;23.05;100.00
27294;BME280;14785;52.556;13.430;2022-08-25T01:49:26;101288.56;;;22.94;100.00
27294;BME280;14785;52.556;13.430;2022-08-25T01:54:35;101298.31;;;23.01;100.00
27294;BME280;14785;52.556;13.430;2022-08-25T01:57:00;101290.19;;;23.01;100.00
27294;BME280;14785;52.556;13.430;2022-08-25T01:59:26;101279.81;;;22.92;100.00
27294;BME280;14785;52.556;13.430;2022-08-25T02:01:51;101276.84;;;23.00;100.00
27294;BME280;14785;52.556;13.430;2022-08-25T02:04:17;101279.00;;;22.91;100.00
27294;BME280;14785;52.556;13.430;2022-08-25T02:06:43;101278.22;;;23.09;100.00
27294;BME280;14785;52.556;13.430;2022-08-25T02:09:15;101270.47;;;23.12;100.00
27294;BME280;14785;52.556;13.430;2022-08-25T02:11:42;101269.75;;;22.99;100.00
27294;BME280;14785;52.556;13.430;2022-08-25T02:14:09;101266.41;;;22.97;100.00
27294;BME280;14785;52.556;13.430;2022-08-25T02:16:37;101270.66;;;22.93;100.00
27294;BME280;14785;52.556;13.430;2022-08-25T02:19:05;101270.66;;;22.93;100.00
27294;BME280;14785;52.556;13.430;2022-08-25T02:21:31;101267.63;;;23.01;100.00
27294;BME280;14785;52.556;13.430;2022-08-25T02:23:56;101262.28;;;22.94;100.00
27294;BME280;14785;52.556;13.430;2022-08-25T02:26:22;101263.66;;;22.79;100.00
27294;BME280;14785;52.556;13.430;2022-08-25T02:28:49;101262.38;;;22.81;100.00
27294;BME280;14785;52.556;13.430;2022-08-25T02:31:16;101255.25;;;22.87;100.00
27294;BME280;14785;52.556;13.430;2022-08-25T02:33:43;101256.56;;;22.78;100.00
27294;BME280;14785;52.556;13.430;2022-08-25T02:36:08;101257.47;;;22.72;100.00
27294;BME280;14785;52.556;13.430;2022-08-25T02:38:35;101264.78;;;22.65;100.00
27294;BME280;14785;52.556;13.430;2022-08-25T02:41:00;101261.13;;;22.84;100.00
27294;BME280;14785;52.556;13.430;2022-08-25T02:43:31;101255.69;;;22.84;100.00
27294;BME280;14785;52.556;13.430;2022-08-25T02:45:57;101257.06;;;22.68;100.00
27294;BME280;14785;52.556;13.430;2022-08-25T02:48:23;101255.91;;;22.58;100.00
27294;BME280;14785;52.556;13.430;2022-08-25T02:50:50;101265.09;;;22.57;100.00
27294;BME280;14785;52.556;13.430;2022-08-25T02:53:18;101257.19;;;22.55;100.00
27294;BME280;14785;52.556;13.430;2022-08-25T02:55:43;101251.69;;;22.62;100.00
27294;BME280;14785;52.556;13.430;2022-08-25T02:58:08;101250.47;;;22.58;100.00
27294;BME280;14785;52.556;13.430;2022-08-25T03:00:35;101250.47;;;22.58;100.00
27294;BME280;14785;52.556;13.430;2022-08-25T03:03:00;101243.41;;;22.57;100.00
27294;BME280;14785;52.556;13.430;2022-08-25T03:05:26;101245.47;;;22.54;100.00
27294;BME280;14785;52.556;13.430;2022-08-25T03:07:51;101244.59;;;22.61;100.00
27294;BME280;14785;52.556;13.430;2022-08-25T03:10:17;101236.69;;;22.59;100.00
27294;BME280;14785;52.556;13.430;2022-08-25T03:12:44;101230.06;;;22.48;100.00
27294;BME280;14785;52.556;13.430;2022-08-25T03:15:13;101236.81;;;22.39;100.00
27294;BME280;14785;52.556;13.430;2022-08-25T03:17:41;101242.66;;;22.36;100.00
27294;BME280;14785;52.556;13.430;2022-08-25T03:20:06;101240.31;;;22.46;100.00
27294;BME280;14785;52.556;13.430;2022-08-25T03:22:32;101232.59;;;22.50;100.00
27294;BME280;14785;52.556;13.430;2022-08-25T03:24:58;101227.78;;;22.45;100.00
27294;BME280;14785;52.556;13.430;2022-08-25T03:27:43;101234.53;;;22.36;100.00
27294;BME280;14785;52.556;13.430;2022-08-25T03:30:09;101235.56;;;22.42;100.00
27294;BME280;14785;52.556;13.430;2022-08-25T03:32:34;101227.78;;;22.45;100.00
27294;BME280;14785;52.556;13.430;2022-08-25T03:35:00;101237.69;;;22.33;100.00
27294;BME280;14785;52.556;13.430;2022-08-25T03:37:26;101229.31;;;22.35;100.00
27294;BME280;14785;52.556;13.430;2022-08-25T03:39:51;101221.13;;;22.48;100.00
27294;BME280;14785;52.556;13.430;2022-08-25T03:42:17;101220.09;;;22.42;100.00
27294;BME280;14785;52.556;13.430;2022-08-25T03:44:42;101221.81;;;22.37;100.00
27294;BME280;14785;52.556;13.430;2022-08-25T03:47:08;101222.28;;;22.27;100.00
27294;BME280;14785;52.556;13.430;2022-08-25T03:49:33;101221.84;;;22.30;100.00
27294;BME280;14785;52.556;13.430;2022-08-25T03:51:58;101225.66;;;22.23;100.00
27294;BME280;14785;52.556;13.430;2022-08-25T03:54:25;101226.94;;;22.20;100.00
27294;BME280;14785;52.556;13.430;2022-08-25T03:56:51;101227.72;;;22.27;100.00
27294;BME280;14785;52.556;13.430;2022-08-25T03:59:17;101223.16;;;22.21;100.00
27294;BME280;14785;52.556;13.430;2022-08-25T04:01:44;101223.53;;;22.31;100.00
27294;BME280;14785;52.556;13.430;2022-08-25T04:04:11;101218.88;;;22.38;100.00
27294;BME280;14785;52.556;13.430;2022-08-25T04:06:38;101227.69;;;22.34;100.00
27294;BME280;14785;52.556;13.430;2022-08-25T04:09:04;101241.44;;;22.32;100.00
27294;BME280;14785;52.556;13.430;2022-08-25T04:11:29;101235.59;;;22.35;100.00
27294;BME280;14785;52.556;13.430;2022-08-25T04:13:56;101235.78;;;22.40;100.00
27294;BME280;14785;52.556;13.430;2022-08-25T04:16:24;101238.94;;;22.37;100.00
27294;BME280;14785;52.556;13.430;2022-08-25T04:18:52;101241.19;;;22.40;100.00
27294;BME280;14785;52.556;13.430;2022-08-25T04:21:19;101243.50;;;22.37;100.00
27294;BME280;14785;52.556;13.430;2022-08-25T04:23:46;101245.56;;;22.41;100.00
27294;BME280;14785;52.556;13.430;2022-08-25T04:26:25;101252.28;;;22.32;100.00
27294;BME280;14785;52.556;13.430;2022-08-25T04:28:51;101241.56;;;22.50;100.00
27294;BME280;14785;52.556;13.430;2022-08-25T04:31:18;101258.50;;;22.39;100.00
27294;BME280;14785;52.556;13.430;2022-08-25T04:33:43;101260.22;;;22.27;100.00
27294;BME280;14785;52.556;13.430;2022-08-25T04:36:10;101256.38;;;22.48;100.00
27294;BME280;14785;52.556;13.430;2022-08-25T04:38:37;101255.13;;;22.44;100.00
27294;BME280;14785;52.556;13.430;2022-08-25T04:41:03;101252.41;;;22.50;100.00
27294;BME280;14785;52.556;13.430;2022-08-25T04:43:30;101256.78;;;22.51;100.00
27294;BME280;14785;52.556;13.430;2022-08-25T04:45:56;101250.53;;;22.44;100.00
27294;BME280;14785;52.556;13.430;2022-08-25T04:48:22;101249.69;;;22.50;100.00
27294;BME280;14785;52.556;13.430;2022-08-25T04:50:48;101258.22;;;22.54;100.00
27294;BME280;14785;52.556;13.430;2022-08-25T04:53:14;101255.97;;;22.44;100.00
27294;BME280;14785;52.556;13.430;2022-08-25T04:55:40;101242.78;;;22.54;100.00
27294;BME280;14785;52.556;13.430;2022-08-25T04:58:06;101249.25;;;22.53;100.00
27294;BME280;14785;52.556;13.430;2022-08-25T05:00:33;101249.59;;;22.64;100.00
27294;BME280;14785;52.556;13.430;2022-08-25T05:03:00;101242.06;;;22.66;100.00
27294;BME280;14785;52.556;13.430;2022-08-25T05:05:25;101245.03;;;22.58;100.00
27294;BME280;14785;52.556;13.430;2022-08-25T05:07:51;101247.00;;;22.44;100.00
27294;BME280;14785;52.556;13.430;2022-08-25T05:10:17;101253.06;;;22.39;100.00
27294;BME280;14785;52.556;13.430;2022-08-25T05:12:42;101260.00;;;22.35;100.00
27294;BME280;14785;52.556;13.430;2022-08-25T05:15:08;101250.97;;;22.41;100.00
27294;BME280;14785;52.556;13.430;2022-08-25T05:17:52;101258.00;;;22.56;100.00
27294;BME280;14785;52.556;13.430;2022-08-25T05:20:17;101258.06;;;22.42;100.00
27294;BME280;14785;52.556;13.430;2022-08-25T05:22:44;101251.25;;;22.65;100.00
27294;BME280;14785;52.556;13.430;2022-08-25T05:25:10;101251.63;;;22.68;100.00
27294;BME280;14785;52.556;13.430;2022-08-25T05:27:36;101250.66;;;22.63;100.00
27294;BME280;14785;52.556;13.430;2022-08-25T05:30:01;101262.31;;;22.88;100.00
27294;BME280;14785;52.556;13.430;2022-08-25T05:32:27;101258.56;;;22.89;100.00
27294;BME280;14785;52.556;13.430;2022-08-25T05:34:52;101265.25;;;22.86;100.00
27294;BME280;14785;52.556;13.430;2022-08-25T05:37:17;101267.34;;;22.84;100.00
27294;BME280;14785;52.556;13.430;2022-08-25T05:39:42;101291.44;;;22.74;100.00
27294;BME280;14785;52.556;13.430;2022-08-25T05:42:08;101281.16;;;22.14;100.00
27294;BME280;14785;52.556;13.430;2022-08-25T05:44:33;101291.84;;;22.46;100.00
27294;BME280;14785;52.556;13.430;2022-08-25T05:46:59;101287.63;;;22.57;100.00
27294;BME280;14785;52.556;13.430;2022-08-25T05:49:24;101294.50;;;22.15;100.00
27294;BME280;14785;52.556;13.430;2022-08-25T05:51:49;101304.13;;;22.11;100.00
27294;BME280;14785;52.556;13.430;2022-08-25T05:54:14;101300.66;;;22.35;100.00
27294;BME280;14785;52.556;13.430;2022-08-25T05:56:40;101296.78;;;22.56;100.00
27294;BME280;14785;52.556;13.430;2022-08-25T05:59:05;101293.69;;;22.46;100.00
27294;BME280;14785;52.556;13.430;2022-08-25T06:01:30;101290.66;;;22.36;100.00
27294;BME280;14785;52.556;13.430;2022-08-25T06:04:15;101290.94;;;22.59;100.00
27294;BME280;14785;52.556;13.430;2022-08-25T06:06:42;101296.81;;;22.81;100.00
27294;BME280;14785;52.556;13.430;2022-08-25T06:09:08;101280.38;;;22.51;100.00
27294;BME280;14785;52.556;13.430;2022-08-25T06:11:38;101292.50;;;22.42;100.00
27294;BME280;14785;52.556;13.430;2022-08-25T06:14:03;101290.81;;;22.72;100.00
27294;BME280;14785;52.556;13.430;2022-08-25T06:16:29;101291.03;;;23.02;100.00
27294;BME280;14785;52.556;13.430;2022-08-25T06:18:55;101291.78;;;23.09;100.00
27294;BME280;14785;52.556;13.430;2022-08-25T06:21:20;101290.66;;;22.92;100.00
27294;BME280;14785;52.556;13.430;2022-08-25T06:23:45;101291.28;;;22.94;100.00
27294;BME280;14785;52.556;13.430;2022-08-25T06:26:12;101288.53;;;23.00;100.00
27294;BME280;14785;52.556;13.430;2022-08-25T06:28:37;101283.78;;;22.65;100.00
27294;BME280;14785;52.556;13.430;2022-08-25T06:31:03;101286.06;;;22.92;100.00
27294;BME280;14785;52.556;13.430;2022-08-25T06:33:29;101285.75;;;22.82;100.00
27294;BME280;14785;52.556;13.430;2022-08-25T06:35:54;101278.38;;;23.14;100.00
27294;BME280;14785;52.556;13.430;2022-08-25T06:38:20;101280.75;;;23.04;100.00
27294;BME280;14785;52.556;13.430;2022-08-25T06:40:47;101282.22;;;23.06;100.00
27294;BME280;14785;52.556;13.430;2022-08-25T06:43:12;101282.06;;;23.19;100.00
27294;BME280;14785;52.556;13.430;2022-08-25T06:45:37;101292.91;;;23.26;100.00
27294;BME280;14785;52.556;13.430;2022-08-25T06:48:03;101291.19;;;23.31;100.00
27294;BME280;14785;52.556;13.430;2022-08-25T06:50:28;101294.88;;;23.37;100.00
27294;BME280;14785;52.556;13.430;2022-08-25T06:52:53;101289.75;;;23.65;100.00
27294;BME280;14785;52.556;13.430;2022-08-25T06:55:19;101287.81;;;23.72;100.00
27294;BME280;14785;52.556;13.430;2022-08-25T06:57:44;101287.19;;;23.52;100.00
27294;BME280;14785;52.556;13.430;2022-08-25T07:00:11;101286.44;;;23.63;100.00
27294;BME280;14785;52.556;13.430;2022-08-25T07:02:36;101282.91;;;23.62;100.00
27294;BME280;14785;52.556;13.430;2022-08-25T07:05:03;101284.41;;;23.76;100.00
27294;BME280;14785;52.556;13.430;2022-08-25T07:07:28;101297.06;;;23.28;100.00
27294;BME280;14785;52.556;13.430;2022-08-25T07:09:54;101304.03;;;23.42;100.00
27294;BME280;14785;52.556;13.430;2022-08-25T07:12:20;101289.06;;;23.87;100.00
27294;BME280;14785;52.556;13.430;2022-08-25T07:14:45;101282.16;;;24.09;100.00
27294;BME280;14785;52.556;13.430;2022-08-25T07:17:11;101273.84;;;24.34;100.00
27294;BME280;14785;52.556;13.430;2022-08-25T07:19:37;101268.53;;;24.39;100.00
27294;BME280;14785;52.556;13.430;2022-08-25T07:22:02;101274.53;;;24.59;100.00
27294;BME280;14785;52.556;13.430;2022-08-25T07:24:28;101270.66;;;24.37;100.00
27294;BME280;14785;52.556;13.430;2022-08-25T07:26:53;101270.00;;;24.53;100.00
27294;BME280;14785;52.556;13.430;2022-08-25T07:29:22;101274.63;;;24.53;100.00
27294;BME280;14785;52.556;13.430;2022-08-25T07:31:48;101273.78;;;24.52;100.00
27294;BME280;14785;52.556;13.430;2022-08-25T07:34:13;101271.56;;;24.31;100.00
27294;BME280;14785;52.556;13.430;2022-08-25T07:36:58;101264.00;;;24.21;100.00
27294;BME280;14785;52.556;13.430;2022-08-25T07:39:25;101274.94;;;24.15;100.00
27294;BME280;14785;52.556;13.430;2022-08-25T07:41:51;101257.91;;;24.49;100.00
27294;BME280;14785;52.556;13.430;2022-08-25T07:44:17;101258.38;;;24.46;100.00
27294;BME280;14785;52.556;13.430;2022-08-25T07:46:43;101261.38;;;24.56;100.00
27294;BME280;14785;52.556;13.430;2022-08-25T07:49:08;101264.81;;;24.63;100.00
27294;BME280;14785;52.556;13.430;2022-08-25T07:51:34;101268.47;;;24.57;100.00
27294;BME280;14785;52.556;13.430;2022-08-25T07:54:00;101269.81;;;24.66;100.00
27294;BME280;14785;52.556;13.430;2022-08-25T07:56:25;101260.84;;;24.77;100.00
27294;BME280;14785;52.556;13.430;2022-08-25T07:58:51;101263.34;;;24.90;100.00
27294;BME280;14785;52.556;13.430;2022-08-25T08:01:19;101268.91;;;24.95;100.00
27294;BME280;14785;52.556;13.430;2022-08-25T08:03:45;101265.94;;;24.97;100.00
27294;BME280;14785;52.556;13.430;2022-08-25T08:06:11;101261.13;;;25.33;100.00
27294;BME280;14785;52.556;13.430;2022-08-25T08:08:39;101253.53;;;25.12;100.00
27294;BME280;14785;52.556;13.430;2022-08-25T08:11:13;101257.34;;;25.34;100.00
27294;BME280;14785;52.556;13.430;2022-08-25T08:13:39;101253.06;;;25.50;100.00
27294;BME280;14785;52.556;13.430;2022-08-25T08:16:10;101257.19;;;25.52;100.00
27294;BME280;14785;52.556;13.430;2022-08-25T08:18:36;101251.59;;;25.70;100.00
27294;BME280;14785;52.556;13.430;2022-08-25T08:21:02;101252.28;;;25.77;100.00
27294;BME280;14785;52.556;13.430;2022-08-25T08:23:27;101249.16;;;25.85;100.00
27294;BME280;14785;52.556;13.430;2022-08-25T08:25:54;101250.06;;;25.63;100.00
27294;BME280;14785;52.556;13.430;2022-08-25T08:28:20;101249.53;;;25.77;100.00
27294;BME280;14785;52.556;13.430;2022-08-25T08:30:45;101242.69;;;26.15;100.00
27294;BME280;14785;52.556;13.430;2022-08-25T08:33:11;101238.28;;;26.42;100.00
27294;BME280;14785;52.556;13.430;2022-08-25T08:35:36;101238.94;;;26.49;100.00
27294;BME280;14785;52.556;13.430;2022-08-25T08:38:02;101232.69;;;26.65;100.00
27294;BME280;14785;52.556;13.430;2022-08-25T08:40:29;101235.53;;;26.70;100.00
27294;BME280;14785;52.556;13.430;2022-08-25T08:43:06;101221.03;;;26.08;100.00
27294;BME280;14785;52.556;13.430;2022-08-25T08:51:18;101222.25;;;26.62;100.00
27294;BME280;14785;52.556;13.430;2022-08-25T08:53:53;101229.97;;;26.65;100.00
27294;BME280;14785;52.556;13.430;2022-08-25T08:56:26;101229.19;;;26.53;100.00
27294;BME280;14785;52.556;13.430;2022-08-25T08:59:00;101232.38;;;26.78;100.00
27294;BME280;14785;52.556;13.430;2022-08-25T09:01:30;101230.72;;;26.77;100.00
27294;BME280;14785;52.556;13.430;2022-08-25T09:04:38;101231.78;;;26.92;100.00
27294;BME280;14785;52.556;13.430;2022-08-25T09:07:11;101229.41;;;26.63;100.00
27294;BME280;14785;52.556;13.430;2022-08-25T09:09:39;101221.22;;;26.35;100.00
27294;BME280;14785;52.556;13.430;2022-08-25T09:23:24;101227.88;;;27.05;100.00
27294;BME280;14785;52.556;13.430;2022-08-25T09:26:18;101221.50;;;27.16;100.00
27294;BME280;14785;52.556;13.430;2022-08-25T09:31:32;101215.13;;;27.10;100.00
27294;BME280;14785;52.556;13.430;2022-08-25T09:34:00;101220.78;;;26.71;100.00
27294;BME280;14785;52.556;13.430;2022-08-25T09:36:26;101213.63;;;26.37;100.00
27294;BME280;14785;52.556;13.430;2022-08-25T09:38:52;101215.66;;;26.58;100.00
27294;BME280;14785;52.556;13.430;2022-08-25T09:41:53;101217.22;;;26.54;100.00
27294;BME280;14785;52.556;13.430;2022-08-25T09:47:05;101210.78;;;26.60;100.00
27294;BME280;14785;52.556;13.430;2022-08-25T09:49:43;101208.72;;;26.67;100.00
27294;BME280;14785;52.556;13.430;2022-08-25T09:54:58;101203.94;;;27.50;100.00
27294;BME280;14785;52.556;13.430;2022-08-25T09:57:35;101199.72;;;27.21;100.00
27294;BME280;14785;52.556;13.430;2022-08-25T10:05:29;101198.19;;;26.92;100.00
27294;BME280;14785;52.556;13.430;2022-08-25T10:08:03;101196.06;;;26.77;100.00
27294;BME280;14785;52.556;13.430;2022-08-25T10:10:38;101192.66;;;26.54;100.00
27294;BME280;14785;52.556;13.430;2022-08-25T10:13:14;101191.16;;;26.96;100.00
27294;BME280;14785;52.556;13.430;2022-08-25T10:15:41;101182.28;;;27.43;100.00
27294;BME280;14785;52.556;13.430;2022-08-25T10:18:28;101179.78;;;27.85;100.00
27294;BME280;14785;52.556;13.430;2022-08-25T10:21:19;101177.19;;;27.14;100.00
27294;BME280;14785;52.556;13.430;2022-08-25T10:23:48;101170.91;;;27.30;100.00
27294;BME280;14785;52.556;13.430;2022-08-25T10:26:42;101171.19;;;27.76;100.00
27294;BME280;14785;52.556;13.430;2022-08-25T10:29:18;101170.59;;;27.96;100.00
27294;BME280;14785;52.556;13.430;2022-08-25T10:31:55;101166.56;;;28.30;100.00
27294;BME280;14785;52.556;13.430;2022-08-25T10:34:36;101171.56;;;28.38;100.00
27294;BME280;14785;52.556;13.430;2022-08-25T10:37:14;101179.16;;;28.31;100.00
27294;BME280;14785;52.556;13.430;2022-08-25T10:39:56;101166.41;;;28.73;100.00
27294;BME280;14785;52.556;13.430;2022-08-25T10:42:33;101166.66;;;28.40;100.00
27294;BME280;14785;52.556;13.430;2022-08-25T10:45:16;101167.31;;;27.94;100.00
27294;BME280;14785;52.556;13.430;2022-08-25T10:51:05;101153.28;;;28.12;100.00
27294;BME280;14785;52.556;13.430;2022-08-25T10:54:11;101141.22;;;28.81;100.00
27294;BME280;14785;52.556;13.430;2022-08-25T11:02:23;101125.03;;;28.38;100.00
27294;BME280;14785;52.556;13.430;2022-08-25T11:05:22;101119.94;;;28.88;100.00
27294;BME280;14785;52.556;13.430;2022-08-25T11:07:52;101125.13;;;29.36;100.00
27294;BME280;14785;52.556;13.430;2022-08-25T11:10:25;101120.44;;;29.32;100.00
27294;BME280;14785;52.556;13.430;2022-08-25T11:12:55;101110.91;;;29.49;100.00
27294;BME280;14785;52.556;13.430;2022-08-25T11:20:33;101113.31;;;31.31;100.00
27294;BME280;14785;52.556;13.430;2022-08-25T11:25:41;101111.16;;;32.49;100.00
27294;BME280;14785;52.556;13.430;2022-08-25T11:28:26;101107.88;;;32.47;100.00
27294;BME280;14785;52.556;13.430;2022-08-25T11:30:56;101102.97;;;32.39;100.00
27294;BME280;14785;52.556;13.430;2022-08-25T11:33:24;101110.38;;;32.10;100.00
27294;BME280;14785;52.556;13.430;2022-08-25T11:35:58;101095.28;;;31.64;100.00
27294;BME280;14785;52.556;13.430;2022-08-25T11:39:41;101095.22;;;31.74;100.00
27294;BME280;14785;52.556;13.430;2022-08-25T11:42:00;101098.69;;;31.46;100.00
27294;BME280;14785;52.556;13.430;2022-08-25T11:49:58;101098.03;;;32.93;100.00
27294;BME280;14785;52.556;13.430;2022-08-25T11:55:18;101087.91;;;33.31;100.00
27294;BME280;14785;52.556;13.430;2022-08-25T11:57:46;101094.25;;;33.32;100.00
27294;BME280;14785;52.556;13.430;2022-08-25T12:00:41;101085.66;;;33.57;100.00
27294;BME280;14785;52.556;13.430;2022-08-25T12:09:15;101072.00;;;31.90;100.00
27294;BME280;14785;52.556;13.430;2022-08-25T12:14:36;101061.94;;;31.71;100.00
27294;BME280;14785;52.556;13.430;2022-08-25T12:17:21;101055.53;;;32.47;100.00
27294;BME280;14785;52.556;13.430;2022-08-25T12:19:51;101057.13;;;33.24;100.00
27294;BME280;14785;52.556;13.430;2022-08-25T12:27:08;101068.06;;;34.81;100.00
27294;BME280;14785;52.556;13.430;2022-08-25T12:29:42;101059.31;;;35.77;100.00
27294;BME280;14785;52.556;13.430;2022-08-25T12:35:38;101050.91;;;35.82;100.00
27294;BME280;14785;52.556;13.430;2022-08-25T12:38:38;101043.09;;;35.84;100.00
27294;BME280;14785;52.556;13.430;2022-08-25T12:41:13;101046.81;;;36.55;100.00
27294;BME280;14785;52.556;13.430;2022-08-25T12:43:41;101040.69;;;36.13;100.00
27294;BME280;14785;52.556;13.430;2022-08-25T12:49:31;101027.97;;;36.12;100.00
27294;BME280;14785;52.556;13.430;2022-08-25T12:54:41;101036.50;;;34.55;100.00
27294;BME280;14785;52.556;13.430;2022-08-25T12:59:48;101030.09;;;34.14;100.00
27294;BME280;14785;52.556;13.430;2022-08-25T13:05:03;101020.44;;;33.61;100.00
27294;BME280;14785;52.556;13.430;2022-08-25T13:07:54;101029.34;;;34.40;100.00
27294;BME280;14785;52.556;13.430;2022-08-25T13:13:12;101023.16;;;34.30;100.00
27294;BME280;14785;52.556;13.430;2022-08-25T13:15:47;101017.06;;;34.73;100.00
27294;BME280;14785;52.556;13.430;2022-08-25T13:18:27;101010.34;;;34.93;100.00
27294;BME280;14785;52.556;13.430;2022-08-25T13:21:05;101023.97;;;35.25;100.00
27294;BME280;14785;52.556;13.430;2022-08-25T13:23:37;101013.84;;;35.70;100.00
27294;BME280;14785;52.556;13.430;2022-08-25T13:26:05;101004.06;;;35.50;100.00
27294;BME280;14785;52.556;13.430;2022-08-25T13:28:34;100998.19;;;35.16;100.00
27294;BME280;14785;52.556;13.430;2022-08-25T13:31:08;101005.69;;;35.16;100.00
27294;BME280;14785;52.556;13.430;2022-08-25T13:33:35;100998.59;;;35.23;100.00
27294;BME280;14785;52.556;13.430;2022-08-25T13:36:00;100998.41;;;35.06;100.00
27294;BME280;14785;52.556;13.430;2022-08-25T13:38:47;101002.94;;;34.48;100.00
27294;BME280;14785;52.556;13.430;2022-08-25T13:41:19;100996.59;;;33.33;100.00
27294;BME280;14785;52.556;13.430;2022-08-25T13:43:45;100992.53;;;33.06;100.00
27294;BME280;14785;52.556;13.430;2022-08-25T13:46:11;100993.72;;;33.00;100.00
27294;BME280;14785;52.556;13.430;2022-08-25T13:48:37;100987.94;;;32.78;100.00
27294;BME280;14785;52.556;13.430;2022-08-25T13:53:35;100983.56;;;32.77;100.00
27294;BME280;14785;52.556;13.430;2022-08-25T13:56:01;100981.84;;;33.24;100.00
27294;BME280;14785;52.556;13.430;2022-08-25T13:58:31;100974.03;;;34.27;100.00
27294;BME280;14785;52.556;13.430;2022-08-25T14:03:40;100977.25;;;34.61;100.00
27294;BME280;14785;52.556;13.430;2022-08-25T14:06:09;100972.13;;;35.44;100.00
27294;BME280;14785;52.556;13.430;2022-08-25T14:08:45;100968.28;;;35.18;100.00
27294;BME280;14785;52.556;13.430;2022-08-25T14:11:27;100972.69;;;33.97;100.00
27294;BME280;14785;52.556;13.430;2022-08-25T14:14:03;100961.66;;;34.92;100.00
27294;BME280;14785;52.556;13.430;2022-08-25T14:16:31;100971.28;;;36.18;100.00
27294;BME280;14785;52.556;13.430;2022-08-25T14:18:59;100966.09;;;36.56;100.00